sensor_id;sensor_type;location;lat;lon;timestamp;P1;durP1;ratioP1;P2;durP2;ratioP2
70927;SDS011;58587;53.034;18.576;2024-03-02T00:00:19;65.28;;;27.73;;
70927;SDS011;58587;53.034;18.576;2024-03-02T00:02:46;64.28;;;26.80;;
70927;SDS011;58587;53.034;18.576;2024-03-02T00:05:14;62.92;;;27.02;;
70927;SDS011;58587;53.034;18.576;2024-03-02T00:07:44;60.83;;;27.37;;
70927;SDS011;58587;53.034;18.576;2024-03-02T00:10:12;61.55;;;27.13;;
70927;SDS011;58587;53.034;18.576;2024-03-02T00:12:44;68.32;;;29.77;;
70927;SDS011;58587;53.034;18.576;2024-03-02T00:17:43;70.53;;;28.58;;
70927;SDS011;58587;53.034;18.576;2024-03-02T00:20:09;61.73;;;26.07;;
70927;SDS011;58587;53.034;18.576;2024-03-02T00:22:35;68.28;;;28.95;;
70927;SDS011;58587;53.034;18.576;2024-03-02T00:25:02;67.47;;;28.97;;
70927;SDS011;58587;53.034;18.576;2024-03-02T00:27:28;66.15;;;27.13;;
70927;SDS011;58587;53.034;18.576;2024-03-02T00:29:54;65.50;;;28.97;;
70927;SDS011;58587;53.034;18.576;2024-03-02T00:32:19;64.10;;;28.15;;
70927;SDS011;58587;53.034;18.576;2024-03-02T00:34:44;61.33;;;27.10;;
70927;SDS011;58587;53.034;18.576;2024-03-02T00:37:10;61.47;;;25.70;;
70927;SDS011;58587;53.034;18.576;2024-03-02T00:39:36;58.38;;;26.92;;
70927;SDS011;58587;53.034;18.576;2024-03-02T00:42:02;64.23;;;27.27;;
70927;SDS011;58587;53.034;18.576;2024-03-02T00:44:27;54.60;;;25.13;;
70927;SDS011;58587;53.034;18.576;2024-03-02T00:46:59;54.88;;;25.45;;
70927;SDS011;58587;53.034;18.576;2024-03-02T00:49:25;61.40;;;26.75;;
70927;SDS011;58587;53.034;18.576;2024-03-02T00:51:52;57.45;;;25.23;;
70927;SDS011;58587;53.034;18.576;2024-03-02T00:54:22;57.15;;;24.73;;
70927;SDS011;58587;53.034;18.576;2024-03-02T00:56:49;55.45;;;25.33;;
70927;SDS011;58587;53.034;18.576;2024-03-02T00:59:16;52.45;;;24.50;;
70927;SDS011;58587;53.034;18.576;2024-03-02T01:01:41;52.13;;;23.15;;
70927;SDS011;58587;53.034;18.576;2024-03-02T01:04:07;52.27;;;23.83;;
70927;SDS011;58587;53.034;18.576;2024-03-02T01:06:33;51.60;;;23.80;;
70927;SDS011;58587;53.034;18.576;2024-03-02T01:09:02;54.42;;;24.38;;
70927;SDS011;58587;53.034;18.576;2024-03-02T01:11:28;51.22;;;22.92;;
70927;SDS011;58587;53.034;18.576;2024-03-02T01:13:53;48.28;;;22.33;;
70927;SDS011;58587;53.034;18.576;2024-03-02T01:16:19;49.93;;;21.50;;
70927;SDS011;58587;53.034;18.576;2024-03-02T01:18:44;52.73;;;23.03;;
70927;SDS011;58587;53.034;18.576;2024-03-02T01:21:10;50.17;;;22.13;;
70927;SDS011;58587;53.034;18.576;2024-03-02T01:23:35;52.42;;;22.55;;
70927;SDS011;58587;53.034;18.576;2024-03-02T01:26:00;50.40;;;22.87;;
70927;SDS011;58587;53.034;18.576;2024-03-02T01:28:26;47.00;;;21.30;;
70927;SDS011;58587;53.034;18.576;2024-03-02T01:30:51;41.83;;;21.33;;
70927;SDS011;58587;53.034;18.576;2024-03-02T01:33:17;45.37;;;21.40;;
70927;SDS011;58587;53.034;18.576;2024-03-02T01:35:43;45.42;;;20.48;;
70927;SDS011;58587;53.034;18.576;2024-03-02T01:38:08;46.00;;;20.58;;
70927;SDS011;58587;53.034;18.576;2024-03-02T01:40:34;44.97;;;19.80;;
70927;SDS011;58587;53.034;18.576;2024-03-02T01:43:01;48.42;;;21.40;;
70927;SDS011;58587;53.034;18.576;2024-03-02T01:45:27;48.42;;;21.98;;
70927;SDS011;58587;53.034;18.576;2024-03-02T01:47:53;41.10;;;19.60;;
70927;SDS011;58587;53.034;18.576;2024-03-02T01:50:28;45.67;;;20.13;;
70927;SDS011;58587;53.034;18.576;2024-03-02T01:52:55;45.47;;;21.25;;
70927;SDS011;58587;53.034;18.576;2024-03-02T01:55:21;45.28;;;20.52;;
70927;SDS011;58587;53.034;18.576;2024-03-02T01:57:47;48.73;;;22.03;;
70927;SDS011;58587;53.034;18.576;2024-03-02T02:00:13;46.70;;;22.25;;
70927;SDS011;58587;53.034;18.576;2024-03-02T02:02:39;46.45;;;21.65;;
70927;SDS011;58587;53.034;18.576;2024-03-02T02:05:05;46.70;;;21.23;;
70927;SDS011;58587;53.034;18.576;2024-03-02T02:07:31;41.65;;;19.80;;
70927;SDS011;58587;53.034;18.576;2024-03-02T02:09:56;43.43;;;20.70;;
70927;SDS011;58587;53.034;18.576;2024-03-02T02:12:22;42.67;;;19.70;;
70927;SDS011;58587;53.034;18.576;2024-03-02T02:14:48;44.80;;;20.27;;
70927;SDS011;58587;53.034;18.576;2024-03-02T02:17:14;41.95;;;21.15;;
70927;SDS011;58587;53.034;18.576;2024-03-02T02:19:40;44.47;;;20.45;;
70927;SDS011;58587;53.034;18.576;2024-03-02T02:22:06;42.70;;;19.97;;
70927;SDS011;58587;53.034;18.576;2024-03-02T02:24:31;40.85;;;20.00;;
70927;SDS011;58587;53.034;18.576;2024-03-02T02:26:56;41.58;;;18.65;;
70927;SDS011;58587;53.034;18.576;2024-03-02T02:29:22;38.77;;;18.53;;
70927;SDS011;58587;53.034;18.576;2024-03-02T02:31:47;43.97;;;20.53;;
70927;SDS011;58587;53.034;18.576;2024-03-02T02:34:13;37.07;;;18.13;;
70927;SDS011;58587;53.034;18.576;2024-03-02T02:36:39;40.30;;;19.10;;
70927;SDS011;58587;53.034;18.576;2024-03-02T02:39:05;38.88;;;19.08;;
70927;SDS011;58587;53.034;18.576;2024-03-02T02:41:35;36.70;;;18.20;;
70927;SDS011;58587;53.034;18.576;2024-03-02T02:44:01;39.90;;;18.52;;
70927;SDS011;58587;53.034;18.576;2024-03-02T02:46:26;38.87;;;18.73;;
70927;SDS011;58587;53.034;18.576;2024-03-02T02:48:51;37.70;;;18.53;;
70927;SDS011;58587;53.034;18.576;2024-03-02T02:51:18;39.28;;;18.85;;
70927;SDS011;58587;53.034;18.576;2024-03-02T02:53:43;40.40;;;18.47;;
70927;SDS011;58587;53.034;18.576;2024-03-02T02:56:09;40.93;;;18.90;;
70927;SDS011;58587;53.034;18.576;2024-03-02T02:58:34;36.17;;;17.40;;
70927;SDS011;58587;53.034;18.576;2024-03-02T03:01:00;41.35;;;18.95;;
70927;SDS011;58587;53.034;18.576;2024-03-02T03:03:25;40.53;;;19.37;;
70927;SDS011;58587;53.034;18.576;2024-03-02T03:05:51;39.60;;;18.57;;
70927;SDS011;58587;53.034;18.576;2024-03-02T03:08:16;36.72;;;17.65;;
70927;SDS011;58587;53.034;18.576;2024-03-02T03:10:42;39.13;;;19.05;;
70927;SDS011;58587;53.034;18.576;2024-03-02T03:13:07;38.83;;;19.07;;
70927;SDS011;58587;53.034;18.576;2024-03-02T03:15:34;39.97;;;18.23;;
70927;SDS011;58587;53.034;18.576;2024-03-02T03:18:01;41.95;;;19.02;;
70927;SDS011;58587;53.034;18.576;2024-03-02T03:20:28;38.78;;;18.92;;
70927;SDS011;58587;53.034;18.576;2024-03-02T03:22:54;37.38;;;18.27;;
70927;SDS011;58587;53.034;18.576;2024-03-02T03:25:19;39.13;;;19.10;;
70927;SDS011;58587;53.034;18.576;2024-03-02T03:27:45;39.13;;;18.80;;
70927;SDS011;58587;53.034;18.576;2024-03-02T03:30:11;37.83;;;18.23;;
70927;SDS011;58587;53.034;18.576;2024-03-02T03:32:36;35.87;;;17.13;;
70927;SDS011;58587;53.034;18.576;2024-03-02T03:35:02;36.03;;;18.23;;
70927;SDS011;58587;53.034;18.576;2024-03-02T03:37:28;40.42;;;18.40;;
70927;SDS011;58587;53.034;18.576;2024-03-02T03:39:57;36.75;;;18.55;;
70927;SDS011;58587;53.034;18.576;2024-03-02T03:42:24;37.40;;;18.58;;
70927;SDS011;58587;53.034;18.576;2024-03-02T03:44:49;35.30;;;17.40;;
70927;SDS011;58587;53.034;18.576;2024-03-02T03:47:15;38.33;;;17.50;;
70927;SDS011;58587;53.034;18.576;2024-03-02T03:49:40;35.20;;;17.60;;
70927;SDS011;58587;53.034;18.576;2024-03-02T03:52:05;39.30;;;18.13;;
70927;SDS011;58587;53.034;18.576;2024-03-02T03:54:31;34.10;;;17.73;;
70927;SDS011;58587;53.034;18.576;2024-03-02T03:56:56;32.80;;;17.00;;
70927;SDS011;58587;53.034;18.576;2024-03-02T03:59:21;36.37;;;18.27;;
70927;SDS011;58587;53.034;18.576;2024-03-02T04:01:47;36.10;;;17.23;;
70927;SDS011;58587;53.034;18.576;2024-03-02T04:04:12;36.85;;;17.23;;
70927;SDS011;58587;53.034;18.576;2024-03-02T04:06:37;34.93;;;18.23;;
70927;SDS011;58587;53.034;18.576;2024-03-02T04:09:03;35.40;;;17.67;;
70927;SDS011;58587;53.034;18.576;2024-03-02T04:11:28;35.50;;;17.77;;
70927;SDS011;58587;53.034;18.576;2024-03-02T04:13:55;37.10;;;18.48;;
70927;SDS011;58587;53.034;18.576;2024-03-02T04:16:20;39.03;;;18.53;;
70927;SDS011;58587;53.034;18.576;2024-03-02T04:18:46;38.33;;;19.10;;
70927;SDS011;58587;53.034;18.576;2024-03-02T04:21:11;37.92;;;18.30;;
70927;SDS011;58587;53.034;18.576;2024-03-02T04:23:37;36.70;;;18.40;;
70927;SDS011;58587;53.034;18.576;2024-03-02T04:26:02;36.90;;;18.67;;
70927;SDS011;58587;53.034;18.576;2024-03-02T04:28:28;37.60;;;18.37;;
70927;SDS011;58587;53.034;18.576;2024-03-02T04:30:53;37.10;;;19.30;;
70927;SDS011;58587;53.034;18.576;2024-03-02T04:33:18;35.72;;;18.25;;
70927;SDS011;58587;53.034;18.576;2024-03-02T04:35:43;37.28;;;19.15;;
70927;SDS011;58587;53.034;18.576;2024-03-02T04:38:09;40.40;;;19.50;;
70927;SDS011;58587;53.034;18.576;2024-03-02T04:40:34;40.60;;;19.87;;
70927;SDS011;58587;53.034;18.576;2024-03-02T04:43:00;38.67;;;19.20;;
70927;SDS011;58587;53.034;18.576;2024-03-02T04:45:25;41.07;;;19.10;;
70927;SDS011;58587;53.034;18.576;2024-03-02T04:47:50;36.73;;;19.63;;
70927;SDS011;58587;53.034;18.576;2024-03-02T04:50:16;37.20;;;19.30;;
70927;SDS011;58587;53.034;18.576;2024-03-02T04:52:41;39.10;;;19.03;;
70927;SDS011;58587;53.034;18.576;2024-03-02T04:55:07;37.07;;;19.23;;
70927;SDS011;58587;53.034;18.576;2024-03-02T04:57:42;38.15;;;18.83;;
70927;SDS011;58587;53.034;18.576;2024-03-02T05:00:08;43.50;;;21.17;;
70927;SDS011;58587;53.034;18.576;2024-03-02T05:02:34;39.33;;;19.20;;
70927;SDS011;58587;53.034;18.576;2024-03-02T05:04:59;38.80;;;19.42;;
70927;SDS011;58587;53.034;18.576;2024-03-02T05:07:25;39.00;;;20.17;;
70927;SDS011;58587;53.034;18.576;2024-03-02T05:09:50;39.23;;;19.13;;
70927;SDS011;58587;53.034;18.576;2024-03-02T05:12:16;39.60;;;19.43;;
70927;SDS011;58587;53.034;18.576;2024-03-02T05:14:45;38.08;;;19.50;;
70927;SDS011;58587;53.034;18.576;2024-03-02T05:17:11;39.80;;;19.85;;
70927;SDS011;58587;53.034;18.576;2024-03-02T05:19:36;43.37;;;20.03;;
70927;SDS011;58587;53.034;18.576;2024-03-02T05:22:01;41.40;;;20.13;;
70927;SDS011;58587;53.034;18.576;2024-03-02T05:24:28;43.88;;;20.77;;
70927;SDS011;58587;53.034;18.576;2024-03-02T05:26:53;43.33;;;20.73;;
70927;SDS011;58587;53.034;18.576;2024-03-02T05:29:19;40.92;;;19.55;;
70927;SDS011;58587;53.034;18.576;2024-03-02T05:31:44;41.50;;;18.80;;
70927;SDS011;58587;53.034;18.576;2024-03-02T05:34:09;42.97;;;19.80;;
70927;SDS011;58587;53.034;18.576;2024-03-02T05:36:35;43.43;;;19.23;;
70927;SDS011;58587;53.034;18.576;2024-03-02T05:39:00;43.27;;;21.30;;
70927;SDS011;58587;53.034;18.576;2024-03-02T05:41:26;41.25;;;20.40;;
70927;SDS011;58587;53.034;18.576;2024-03-02T05:43:51;42.80;;;20.87;;
70927;SDS011;58587;53.034;18.576;2024-03-02T05:46:17;43.47;;;20.13;;
70927;SDS011;58587;53.034;18.576;2024-03-02T05:48:42;42.67;;;20.67;;
70927;SDS011;58587;53.034;18.576;2024-03-02T05:51:07;44.10;;;21.07;;
70927;SDS011;58587;53.034;18.576;2024-03-02T05:53:33;43.87;;;20.23;;
70927;SDS011;58587;53.034;18.576;2024-03-02T05:55:58;46.73;;;20.30;;
70927;SDS011;58587;53.034;18.576;2024-03-02T05:58:24;41.80;;;20.47;;
70927;SDS011;58587;53.034;18.576;2024-03-02T06:00:49;41.43;;;20.13;;
70927;SDS011;58587;53.034;18.576;2024-03-02T06:03:14;49.80;;;21.98;;
70927;SDS011;58587;53.034;18.576;2024-03-02T06:05:40;44.13;;;20.47;;
70927;SDS011;58587;53.034;18.576;2024-03-02T06:08:05;58.30;;;23.50;;
70927;SDS011;58587;53.034;18.576;2024-03-02T06:10:32;51.42;;;23.10;;
70927;SDS011;58587;53.034;18.576;2024-03-02T06:12:57;48.40;;;21.47;;
70927;SDS011;58587;53.034;18.576;2024-03-02T06:15:24;48.05;;;21.60;;
70927;SDS011;58587;53.034;18.576;2024-03-02T06:17:49;46.53;;;21.47;;
70927;SDS011;58587;53.034;18.576;2024-03-02T06:20:15;49.00;;;22.27;;
70927;SDS011;58587;53.034;18.576;2024-03-02T06:22:40;48.40;;;22.02;;
70927;SDS011;58587;53.034;18.576;2024-03-02T06:25:05;49.15;;;21.30;;
70927;SDS011;58587;53.034;18.576;2024-03-02T06:27:31;45.20;;;21.47;;
70927;SDS011;58587;53.034;18.576;2024-03-02T06:29:56;45.63;;;20.37;;
70927;SDS011;58587;53.034;18.576;2024-03-02T06:32:22;53.13;;;25.20;;
70927;SDS011;58587;53.034;18.576;2024-03-02T06:34:49;61.90;;;34.30;;
70927;SDS011;58587;53.034;18.576;2024-03-02T06:37:15;53.75;;;29.90;;
70927;SDS011;58587;53.034;18.576;2024-03-02T06:39:41;46.63;;;22.08;;
70927;SDS011;58587;53.034;18.576;2024-03-02T06:42:06;46.38;;;22.48;;
70927;SDS011;58587;53.034;18.576;2024-03-02T06:44:31;48.95;;;21.25;;
70927;SDS011;58587;53.034;18.576;2024-03-02T06:46:57;41.07;;;20.77;;
70927;SDS011;58587;53.034;18.576;2024-03-02T06:49:22;45.40;;;21.00;;
70927;SDS011;58587;53.034;18.576;2024-03-02T06:51:47;47.43;;;22.00;;
70927;SDS011;58587;53.034;18.576;2024-03-02T06:54:13;49.10;;;22.10;;
70927;SDS011;58587;53.034;18.576;2024-03-02T06:56:38;48.67;;;25.30;;
70927;SDS011;58587;53.034;18.576;2024-03-02T06:59:04;47.58;;;23.45;;
70927;SDS011;58587;53.034;18.576;2024-03-02T07:01:29;43.87;;;20.77;;
70927;SDS011;58587;53.034;18.576;2024-03-02T07:03:55;49.37;;;23.53;;
70927;SDS011;58587;53.034;18.576;2024-03-02T07:06:20;45.30;;;21.37;;
70927;SDS011;58587;53.034;18.576;2024-03-02T07:08:45;47.30;;;23.00;;
70927;SDS011;58587;53.034;18.576;2024-03-02T07:11:11;42.93;;;21.13;;
70927;SDS011;58587;53.034;18.576;2024-03-02T07:13:36;48.77;;;22.10;;
70927;SDS011;58587;53.034;18.576;2024-03-02T07:16:02;44.90;;;23.00;;
70927;SDS011;58587;53.034;18.576;2024-03-02T07:18:27;44.20;;;22.40;;
70927;SDS011;58587;53.034;18.576;2024-03-02T07:20:52;45.72;;;22.48;;
70927;SDS011;58587;53.034;18.576;2024-03-02T07:23:18;44.73;;;22.87;;
70927;SDS011;58587;53.034;18.576;2024-03-02T07:25:44;42.17;;;20.83;;
70927;SDS011;58587;53.034;18.576;2024-03-02T07:28:09;48.33;;;21.97;;
70927;SDS011;58587;53.034;18.576;2024-03-02T07:30:35;46.93;;;22.83;;
70927;SDS011;58587;53.034;18.576;2024-03-02T07:33:01;48.00;;;23.67;;
70927;SDS011;58587;53.034;18.576;2024-03-02T07:35:26;47.22;;;21.27;;
70927;SDS011;58587;53.034;18.576;2024-03-02T07:37:52;48.73;;;22.87;;
70927;SDS011;58587;53.034;18.576;2024-03-02T07:40:18;45.25;;;23.42;;
70927;SDS011;58587;53.034;18.576;2024-03-02T07:42:44;46.08;;;22.77;;
70927;SDS011;58587;53.034;18.576;2024-03-02T07:45:10;47.23;;;23.87;;
70927;SDS011;58587;53.034;18.576;2024-03-02T07:47:35;50.58;;;24.40;;
70927;SDS011;58587;53.034;18.576;2024-03-02T07:50:01;47.60;;;24.35;;
70927;SDS011;58587;53.034;18.576;2024-03-02T07:52:26;45.20;;;23.70;;
70927;SDS011;58587;53.034;18.576;2024-03-02T07:54:52;43.87;;;22.80;;
70927;SDS011;58587;53.034;18.576;2024-03-02T07:57:17;46.53;;;23.53;;
70927;SDS011;58587;53.034;18.576;2024-03-02T07:59:42;43.45;;;21.17;;
70927;SDS011;58587;53.034;18.576;2024-03-02T08:02:08;44.60;;;22.57;;
70927;SDS011;58587;53.034;18.576;2024-03-02T08:04:33;51.73;;;27.47;;
70927;SDS011;58587;53.034;18.576;2024-03-02T08:06:59;44.63;;;22.33;;
70927;SDS011;58587;53.034;18.576;2024-03-02T08:09:24;46.30;;;23.33;;
70927;SDS011;58587;53.034;18.576;2024-03-02T08:11:50;62.37;;;29.20;;
70927;SDS011;58587;53.034;18.576;2024-03-02T08:14:16;103.78;;;43.80;;
70927;SDS011;58587;53.034;18.576;2024-03-02T08:16:41;106.43;;;47.67;;
70927;SDS011;58587;53.034;18.576;2024-03-02T08:19:07;67.07;;;34.73;;
70927;SDS011;58587;53.034;18.576;2024-03-02T08:21:33;52.00;;;26.10;;
70927;SDS011;58587;53.034;18.576;2024-03-02T08:24:00;57.95;;;27.88;;
70927;SDS011;58587;53.034;18.576;2024-03-02T08:26:27;47.57;;;24.40;;
70927;SDS011;58587;53.034;18.576;2024-03-02T08:28:54;50.17;;;24.98;;
70927;SDS011;58587;53.034;18.576;2024-03-02T08:31:20;48.78;;;23.50;;
70927;SDS011;58587;53.034;18.576;2024-03-02T08:33:45;41.10;;;21.03;;
70927;SDS011;58587;53.034;18.576;2024-03-02T08:36:10;42.67;;;21.63;;
70927;SDS011;58587;53.034;18.576;2024-03-02T08:38:36;37.53;;;19.67;;
70927;SDS011;58587;53.034;18.576;2024-03-02T08:41:02;37.45;;;20.42;;
70927;SDS011;58587;53.034;18.576;2024-03-02T08:43:28;50.35;;;24.48;;
70927;SDS011;58587;53.034;18.576;2024-03-02T08:45:54;67.60;;;31.33;;
70927;SDS011;58587;53.034;18.576;2024-03-02T08:48:19;67.93;;;30.37;;
70927;SDS011;58587;53.034;18.576;2024-03-02T08:50:45;84.32;;;36.97;;
70927;SDS011;58587;53.034;18.576;2024-03-02T08:53:11;51.63;;;24.17;;
70927;SDS011;58587;53.034;18.576;2024-03-02T08:55:37;40.80;;;21.10;;
70927;SDS011;58587;53.034;18.576;2024-03-02T08:58:02;38.25;;;19.48;;
70927;SDS011;58587;53.034;18.576;2024-03-02T09:00:28;40.13;;;20.33;;
70927;SDS011;58587;53.034;18.576;2024-03-02T09:02:53;44.20;;;21.83;;
70927;SDS011;58587;53.034;18.576;2024-03-02T09:05:19;39.27;;;21.07;;
70927;SDS011;58587;53.034;18.576;2024-03-02T09:07:44;39.73;;;20.17;;
70927;SDS011;58587;53.034;18.576;2024-03-02T09:10:10;51.30;;;25.77;;
70927;SDS011;58587;53.034;18.576;2024-03-02T09:12:35;45.45;;;24.52;;
70927;SDS011;58587;53.034;18.576;2024-03-02T09:15:01;40.72;;;21.23;;
70927;SDS011;58587;53.034;18.576;2024-03-02T09:17:33;41.70;;;21.70;;
70927;SDS011;58587;53.034;18.576;2024-03-02T09:19:59;38.90;;;19.07;;
70927;SDS011;58587;53.034;18.576;2024-03-02T09:22:24;42.65;;;24.27;;
70927;SDS011;58587;53.034;18.576;2024-03-02T09:24:49;45.43;;;24.60;;
70927;SDS011;58587;53.034;18.576;2024-03-02T09:27:15;40.23;;;21.17;;
70927;SDS011;58587;53.034;18.576;2024-03-02T09:29:40;39.00;;;20.10;;
70927;SDS011;58587;53.034;18.576;2024-03-02T09:34:33;39.83;;;20.50;;
70927;SDS011;58587;53.034;18.576;2024-03-02T09:36:59;34.63;;;19.25;;
70927;SDS011;58587;53.034;18.576;2024-03-02T09:39:24;37.43;;;19.47;;
70927;SDS011;58587;53.034;18.576;2024-03-02T09:41:50;37.42;;;20.40;;
70927;SDS011;58587;53.034;18.576;2024-03-02T09:44:16;39.50;;;20.23;;
70927;SDS011;58587;53.034;18.576;2024-03-02T09:46:41;36.97;;;19.50;;
70927;SDS011;58587;53.034;18.576;2024-03-02T09:49:08;34.97;;;19.00;;
70927;SDS011;58587;53.034;18.576;2024-03-02T09:51:37;36.58;;;18.55;;
70927;SDS011;58587;53.034;18.576;2024-03-02T09:54:02;37.97;;;20.73;;
70927;SDS011;58587;53.034;18.576;2024-03-02T09:56:28;36.83;;;19.52;;
70927;SDS011;58587;53.034;18.576;2024-03-02T09:58:53;35.27;;;18.77;;
70927;SDS011;58587;53.034;18.576;2024-03-02T10:01:19;35.73;;;18.83;;
70927;SDS011;58587;53.034;18.576;2024-03-02T10:03:44;37.77;;;19.73;;
70927;SDS011;58587;53.034;18.576;2024-03-02T10:06:27;39.75;;;21.52;;
70927;SDS011;58587;53.034;18.576;2024-03-02T10:08:54;41.88;;;25.63;;
70927;SDS011;58587;53.034;18.576;2024-03-02T10:14:03;35.90;;;19.42;;
70927;SDS011;58587;53.034;18.576;2024-03-02T10:16:33;48.47;;;26.80;;
70927;SDS011;58587;53.034;18.576;2024-03-02T10:19:14;44.78;;;23.70;;
70927;SDS011;58587;53.034;18.576;2024-03-02T10:21:47;45.85;;;24.45;;
70927;SDS011;58587;53.034;18.576;2024-03-02T10:24:16;38.00;;;20.05;;
70927;SDS011;58587;53.034;18.576;2024-03-02T10:26:42;45.85;;;24.58;;
70927;SDS011;58587;53.034;18.576;2024-03-02T10:29:08;40.58;;;21.48;;
70927;SDS011;58587;53.034;18.576;2024-03-02T10:31:36;44.63;;;21.27;;
70927;SDS011;58587;53.034;18.576;2024-03-02T10:34:05;40.67;;;21.90;;
70927;SDS011;58587;53.034;18.576;2024-03-02T10:36:32;38.47;;;22.08;;
70927;SDS011;58587;53.034;18.576;2024-03-02T10:39:02;39.58;;;22.08;;
70927;SDS011;58587;53.034;18.576;2024-03-02T10:41:29;39.50;;;21.33;;
70927;SDS011;58587;53.034;18.576;2024-03-02T10:43:59;41.13;;;22.08;;
70927;SDS011;58587;53.034;18.576;2024-03-02T10:46:28;40.70;;;21.93;;
70927;SDS011;58587;53.034;18.576;2024-03-02T10:48:55;38.58;;;21.08;;
70927;SDS011;58587;53.034;18.576;2024-03-02T10:51:23;41.67;;;22.15;;
70927;SDS011;58587;53.034;18.576;2024-03-02T10:53:53;38.13;;;20.60;;
70927;SDS011;58587;53.034;18.576;2024-03-02T10:56:41;45.55;;;22.42;;
70927;SDS011;58587;53.034;18.576;2024-03-02T11:01:57;40.25;;;21.25;;
70927;SDS011;58587;53.034;18.576;2024-03-02T11:04:24;40.80;;;22.60;;
70927;SDS011;58587;53.034;18.576;2024-03-02T11:06:52;45.78;;;23.48;;
70927;SDS011;58587;53.034;18.576;2024-03-02T11:09:20;56.20;;;27.95;;
70927;SDS011;58587;53.034;18.576;2024-03-02T11:11:54;48.13;;;25.90;;
70927;SDS011;58587;53.034;18.576;2024-03-02T11:14:26;43.50;;;24.02;;
70927;SDS011;58587;53.034;18.576;2024-03-02T11:16:55;61.17;;;38.27;;
70927;SDS011;58587;53.034;18.576;2024-03-02T11:19:21;52.92;;;29.92;;
70927;SDS011;58587;53.034;18.576;2024-03-02T11:21:47;47.70;;;26.52;;
70927;SDS011;58587;53.034;18.576;2024-03-02T11:26:53;46.63;;;25.08;;
70927;SDS011;58587;53.034;18.576;2024-03-02T11:32:04;47.28;;;24.48;;
70927;SDS011;58587;53.034;18.576;2024-03-02T11:34:31;45.73;;;24.43;;
70927;SDS011;58587;53.034;18.576;2024-03-02T11:37:02;41.65;;;23.42;;
70927;SDS011;58587;53.034;18.576;2024-03-02T11:39:28;42.00;;;24.48;;
70927;SDS011;58587;53.034;18.576;2024-03-02T11:41:55;43.27;;;23.47;;
70927;SDS011;58587;53.034;18.576;2024-03-02T11:44:25;42.17;;;23.17;;
70927;SDS011;58587;53.034;18.576;2024-03-02T11:46:52;46.65;;;26.20;;
70927;SDS011;58587;53.034;18.576;2024-03-02T11:52:03;42.67;;;23.83;;
70927;SDS011;58587;53.034;18.576;2024-03-02T11:54:30;47.10;;;26.92;;
70927;SDS011;58587;53.034;18.576;2024-03-02T11:56:58;43.90;;;24.30;;
70927;SDS011;58587;53.034;18.576;2024-03-02T11:59:27;46.17;;;24.00;;
70927;SDS011;58587;53.034;18.576;2024-03-02T12:01:54;43.38;;;23.23;;
70927;SDS011;58587;53.034;18.576;2024-03-02T12:04:19;43.37;;;24.27;;
70927;SDS011;58587;53.034;18.576;2024-03-02T12:06:46;42.67;;;23.40;;
70927;SDS011;58587;53.034;18.576;2024-03-02T12:09:11;43.63;;;24.50;;
70927;SDS011;58587;53.034;18.576;2024-03-02T12:11:37;44.90;;;23.87;;
70927;SDS011;58587;53.034;18.576;2024-03-02T12:14:03;43.00;;;24.83;;
70927;SDS011;58587;53.034;18.576;2024-03-02T12:16:29;46.13;;;24.47;;
70927;SDS011;58587;53.034;18.576;2024-03-02T12:18:54;44.70;;;25.10;;
70927;SDS011;58587;53.034;18.576;2024-03-02T12:21:20;46.37;;;27.10;;
70927;SDS011;58587;53.034;18.576;2024-03-02T12:23:46;39.83;;;23.20;;
70927;SDS011;58587;53.034;18.576;2024-03-02T12:26:11;44.35;;;24.33;;
70927;SDS011;58587;53.034;18.576;2024-03-02T12:28:36;42.00;;;24.33;;
70927;SDS011;58587;53.034;18.576;2024-03-02T12:31:02;44.70;;;24.17;;
70927;SDS011;58587;53.034;18.576;2024-03-02T12:33:28;38.88;;;22.90;;
70927;SDS011;58587;53.034;18.576;2024-03-02T12:35:54;41.58;;;23.52;;
70927;SDS011;58587;53.034;18.576;2024-03-02T12:38:22;41.20;;;23.57;;
70927;SDS011;58587;53.034;18.576;2024-03-02T12:40:50;41.60;;;24.38;;
70927;SDS011;58587;53.034;18.576;2024-03-02T12:43:17;43.15;;;26.58;;
70927;SDS011;58587;53.034;18.576;2024-03-02T12:45:42;40.97;;;22.83;;
70927;SDS011;58587;53.034;18.576;2024-03-02T12:48:08;42.00;;;23.80;;
70927;SDS011;58587;53.034;18.576;2024-03-02T12:50:33;39.67;;;23.67;;
70927;SDS011;58587;53.034;18.576;2024-03-02T12:52:59;40.47;;;22.93;;
70927;SDS011;58587;53.034;18.576;2024-03-02T12:55:24;40.90;;;23.77;;
70927;SDS011;58587;53.034;18.576;2024-03-02T12:57:53;40.90;;;23.05;;
70927;SDS011;58587;53.034;18.576;2024-03-02T13:00:19;52.38;;;29.85;;
70927;SDS011;58587;53.034;18.576;2024-03-02T13:02:46;39.15;;;23.40;;
70927;SDS011;58587;53.034;18.576;2024-03-02T13:05:11;42.47;;;24.77;;
70927;SDS011;58587;53.034;18.576;2024-03-02T13:07:39;41.08;;;24.52;;
70927;SDS011;58587;53.034;18.576;2024-03-02T13:10:04;43.38;;;24.90;;
70927;SDS011;58587;53.034;18.576;2024-03-02T13:12:32;43.17;;;24.88;;
70927;SDS011;58587;53.034;18.576;2024-03-02T13:14:58;43.73;;;26.63;;
70927;SDS011;58587;53.034;18.576;2024-03-02T13:17:27;42.38;;;24.58;;
70927;SDS011;58587;53.034;18.576;2024-03-02T13:19:53;39.90;;;23.80;;
70927;SDS011;58587;53.034;18.576;2024-03-02T13:22:22;41.97;;;24.63;;
70927;SDS011;58587;53.034;18.576;2024-03-02T13:24:49;37.25;;;23.55;;
70927;SDS011;58587;53.034;18.576;2024-03-02T13:27:14;38.53;;;23.77;;
70927;SDS011;58587;53.034;18.576;2024-03-02T13:29:41;37.97;;;23.30;;
70927;SDS011;58587;53.034;18.576;2024-03-02T13:32:06;40.78;;;24.65;;
70927;SDS011;58587;53.034;18.576;2024-03-02T13:34:32;44.97;;;25.63;;
70927;SDS011;58587;53.034;18.576;2024-03-02T13:36:57;39.50;;;23.83;;
70927;SDS011;58587;53.034;18.576;2024-03-02T13:39:23;39.47;;;23.33;;
70927;SDS011;58587;53.034;18.576;2024-03-02T13:41:48;46.57;;;29.33;;
70927;SDS011;58587;53.034;18.576;2024-03-02T13:44:18;38.70;;;23.80;;
70927;SDS011;58587;53.034;18.576;2024-03-02T13:46:44;37.42;;;23.08;;
70927;SDS011;58587;53.034;18.576;2024-03-02T13:49:10;37.17;;;22.27;;
70927;SDS011;58587;53.034;18.576;2024-03-02T13:51:36;40.08;;;23.08;;
70927;SDS011;58587;53.034;18.576;2024-03-02T13:54:02;38.50;;;23.97;;
70927;SDS011;58587;53.034;18.576;2024-03-02T13:56:28;45.73;;;29.70;;
70927;SDS011;58587;53.034;18.576;2024-03-02T13:58:54;45.22;;;27.60;;
70927;SDS011;58587;53.034;18.576;2024-03-02T14:01:19;37.60;;;23.77;;
70927;SDS011;58587;53.034;18.576;2024-03-02T14:03:45;40.50;;;24.20;;
70927;SDS011;58587;53.034;18.576;2024-03-02T14:06:11;44.15;;;26.63;;
70927;SDS011;58587;53.034;18.576;2024-03-02T14:08:36;42.00;;;23.88;;
70927;SDS011;58587;53.034;18.576;2024-03-02T14:11:02;39.10;;;23.77;;
70927;SDS011;58587;53.034;18.576;2024-03-02T14:13:28;46.90;;;24.70;;
70927;SDS011;58587;53.034;18.576;2024-03-02T14:15:54;40.70;;;23.10;;
70927;SDS011;58587;53.034;18.576;2024-03-02T14:18:19;41.33;;;23.58;;
70927;SDS011;58587;53.034;18.576;2024-03-02T14:20:46;40.77;;;23.70;;